Bish "n" Son — BISH — position and weather

sailwx.info

Track history (hours):
 
Tides and Currents Weather Stations Pressure Air Temp Water Temp Dewpoint Dewpoint Depression Visibility Wind Speed Wind Dir Waves Ship Positions

Bish "n" Son

Last reported at 2015-Aug-26 13:27 UTC. Time now 2015-Sep-02 02:26 UTC.
Position N 48°43' W 125°25'.

Length 10 m.

Type: Pleasure craft. MMSI: 316015018.

Date/timePositionNaut miles runAvg speedWind from/ knotsBaromVisibWave heightAir tempDewpointWater temp
2015-Aug-26 13:27N 48°43' W 125°25'  
2015-Aug-19 17:33N 48°51' W 125°31'1 0.6
2015-Aug-19 16:33N 48°51' W 125°31'2 1.8
2015-Aug-19 15:33N 48°50' W 125°33'1 0.8
2015-Aug-19 14:33N 48°50' W 125°34'6 6.5
2015-Aug-19 13:33N 48°52' W 125°25'8 0.2
2015-Aug-17 23:07N 48°50' W 125°37'8 9.5
2015-Aug-17 22:14N 48°52' W 125°49'0 0.1
2015-Aug-17 21:16N 48°52' W 125°49'0 0.1
2015-Aug-17 18:09N 48°52' W 125°49'0 0.6
2015-Aug-17 17:32N 48°52' W 125°49'2 2.3
2015-Aug-17 16:30N 48°52' W 125°46'7 7.0
2015-Aug-17 15:32N 48°50' W 125°36'2 2.3
2015-Aug-17 14:32N 48°50' W 125°32'6 6.2
2015-Aug-17 13:33N 48°50' W 125°23'  
Track history (hours):
 
Tides and Currents Weather Stations Pressure Air Temp Water Temp Dewpoint Dewpoint Depression Visibility Wind Speed Wind Dir Waves Ship Positions

Bish "n" Son

Last reported at 2015-Aug-26 13:27 UTC. Time now 2015-Sep-02 02:26 UTC.
Position N 48°43' W 125°25'.

Length 10 m.

Type: Pleasure craft. MMSI: 316015018.

Date/timePositionNaut miles runAvg speedWind from/ knotsBaromVisibWave heightAir tempDewpointWater temp
2015-Aug-26 13:27N 48°43' W 125°25'  
2015-Aug-19 17:33N 48°51' W 125°31'1 0.6
2015-Aug-19 16:33N 48°51' W 125°31'2 1.8
2015-Aug-19 15:33N 48°50' W 125°33'1 0.8
2015-Aug-19 14:33N 48°50' W 125°34'6 6.5
2015-Aug-19 13:33N 48°52' W 125°25'8 0.2
2015-Aug-17 23:07N 48°50' W 125°37'8 9.5
2015-Aug-17 22:14N 48°52' W 125°49'0 0.1
2015-Aug-17 21:16N 48°52' W 125°49'0 0.1
2015-Aug-17 18:09N 48°52' W 125°49'0 0.6
2015-Aug-17 17:32N 48°52' W 125°49'2 2.3
2015-Aug-17 16:30N 48°52' W 125°46'7 7.0
2015-Aug-17 15:32N 48°50' W 125°36'2 2.3
2015-Aug-17 14:32N 48°50' W 125°32'6 6.2
2015-Aug-17 13:33N 48°50' W 125°23'  

Dump ship's entire track history